Time;durP1;ratioP1;P1;durP2;ratioP2;P2;SDS_P1;SDS_P2;PMS_P1;PMS_P2;Temp;Humidity;BMP_temperature;BMP_pressure;BME280_temperature;BME280_humidity;BME280_pressure;Samples;Min_cycle;Max_cycle;Signal;HPM_P1;HPM_P2
2023/11/26 00:01:52;;;;;;;2.58;1.20;;;20.30;37.90;;;;;;5015839;28;20048;-51
2023/11/26 00:04:21;;;;;;;2.55;1.38;;;20.20;37.90;;;;;;5033555;28;20034;-55
2023/11/26 00:06:48;;;;;;;3.58;1.30;;;20.20;38.50;;;;;;5015341;28;20032;-52
2023/11/26 00:09:15;;;;;;;2.53;1.20;;;20.20;37.90;;;;;;5032303;28;20080;-50
2023/11/26 00:11:41;;;;;;;3.08;1.15;;;20.20;38.50;;;;;;5015612;28;20021;-53
2023/11/26 00:14:07;;;;;;;2.53;1.13;;;20.20;37.80;;;;;;5033407;28;20476;-51
2023/11/26 00:16:39;;;;;;;2.28;1.13;;;20.20;37.80;;;;;;5032957;28;20033;-57
2023/11/26 00:19:05;;;;;;;2.75;1.20;;;20.20;37.80;;;;;;5033678;28;20057;-56
2023/11/26 00:21:34;;;;;;;1.90;0.95;;;20.20;37.80;;;;;;5033414;28;20076;-56
2023/11/26 00:24:00;;;;;;;2.97;1.15;;;20.20;37.70;;;;;;5033132;28;20057;-55
2023/11/26 00:26:26;;;;;;;1.33;0.85;;;20.20;37.70;;;;;;5015664;28;20476;-55
2023/11/26 00:28:58;;;;;;;3.00;1.20;;;20.20;37.70;;;;;;5032778;28;20388;-54
2023/11/26 00:31:25;;;;;;;3.35;1.15;;;20.20;37.70;;;;;;5015732;28;20029;-54
2023/11/26 00:33:51;;;;;;;2.78;1.23;;;20.20;37.70;;;;;;5015128;28;20029;-53
2023/11/26 00:36:18;;;;;;;2.20;1.15;;;20.20;37.70;;;;;;5015731;28;20030;-55
2023/11/26 00:38:44;;;;;;;2.47;1.13;;;20.10;37.60;;;;;;5033019;28;20487;-58
2023/11/26 00:41:10;;;;;;;2.05;1.00;;;20.10;37.60;;;;;;5015622;28;20048;-57
2023/11/26 00:43:36;;;;;;;2.40;1.33;;;20.10;37.60;;;;;;5015569;28;20029;-53
2023/11/26 00:46:02;;;;;;;2.65;1.20;;;20.10;37.60;;;;;;5033346;28;20039;-57
2023/11/26 00:48:28;;;;;;;2.28;1.13;;;20.10;37.60;;;;;;5015144;28;20064;-58
2023/11/26 00:50:54;;;;;;;2.10;1.20;;;20.10;37.50;;;;;;4999370;28;20029;-56
2023/11/26 00:53:21;;;;;;;2.60;1.20;;;20.10;37.50;;;;;;5032746;28;20030;-55
2023/11/26 00:55:47;;;;;;;1.80;1.08;;;20.10;37.50;;;;;;5033362;28;20033;-54
2023/11/26 00:58:14;;;;;;;2.80;1.30;;;20.10;37.50;;;;;;5014892;28;20040;-57
2023/11/26 01:00:40;;;;;;;2.67;1.33;;;20.10;37.50;;;;;;5030139;28;20037;-57
2023/11/26 01:03:09;;;;;;;1.52;1.00;;;20.10;38.10;;;;;;5033936;28;20026;-58
2023/11/26 01:05:35;;;;;;;2.47;1.30;;;20.10;37.50;;;;;;5036744;28;20356;-57
2023/11/26 01:08:01;;;;;;;2.50;1.30;;;20.10;37.50;;;;;;5021890;28;20033;-58
2023/11/26 01:10:27;;;;;;;3.38;1.35;;;20.10;37.40;;;;;;5038532;28;20033;-55
2023/11/26 01:12:53;;;;;;;3.67;1.60;;;20.10;37.40;;;;;;5016695;28;20352;-58
2023/11/26 01:15:19;;;;;;;3.45;1.55;;;20.10;37.40;;;;;;5036031;28;20464;-61
2023/11/26 01:17:45;;;;;;;3.45;1.65;;;20.10;37.40;;;;;;5019678;28;20120;-54
2023/11/26 01:20:12;;;;;;;3.17;1.73;;;20.10;37.40;;;;;;5038442;28;20091;-55
2023/11/26 01:22:41;;;;;;;4.20;1.73;;;20.10;37.40;;;;;;5037276;28;20039;-56
2023/11/26 01:25:07;;;;;;;3.33;1.67;;;20.10;37.40;;;;;;5018228;28;20021;-58
2023/11/26 01:27:33;;;;;;;3.97;1.65;;;20.10;37.40;;;;;;5016286;28;20030;-57
2023/11/26 01:30:00;;;;;;;3.00;1.75;;;20.00;37.30;;;;;;5036683;28;20061;-56
2023/11/26 01:32:26;;;;;;;3.60;1.52;;;20.00;37.30;;;;;;5002776;28;20399;-50
2023/11/26 01:34:52;;;;;;;3.40;1.63;;;20.00;37.30;;;;;;5035963;28;20018;-53
2023/11/26 01:37:18;;;;;;;1.67;1.35;;;20.00;37.30;;;;;;5036502;28;20083;-56
2023/11/26 01:39:44;;;;;;;3.72;1.58;;;20.00;37.30;;;;;;5022759;28;20461;-50
2023/11/26 01:42:10;;;;;;;2.47;1.60;;;20.10;37.40;;;;;;5026968;28;20033;-56
2023/11/26 01:44:36;;;;;;;3.00;1.42;;;20.00;37.30;;;;;;5039461;28;20021;-54
2023/11/26 01:47:04;;;;;;;3.05;1.58;;;20.00;37.30;;;;;;5029514;28;20029;-52
2023/11/26 01:49:31;;;;;;;3.58;1.58;;;20.00;37.30;;;;;;5050988;28;20052;-56
2023/11/26 01:52:02;;;;;;;4.78;1.60;;;20.00;37.30;;;;;;5037954;28;20021;-55
2023/11/26 01:54:31;;;;;;;2.40;1.50;;;20.00;37.30;;;;;;5042589;28;20049;-57
2023/11/26 01:57:00;;;;;;;3.13;1.40;;;20.00;37.30;;;;;;5043606;28;20115;-57
2023/11/26 01:59:26;;;;;;;2.67;1.40;;;20.00;37.30;;;;;;5022684;28;20348;-53
2023/11/26 02:01:55;;;;;;;3.38;1.50;;;20.00;37.30;;;;;;5022196;28;20038;-55
2023/11/26 02:04:21;;;;;;;4.13;1.73;;;20.00;37.30;;;;;;5026682;28;20064;-54
2023/11/26 02:06:55;;;;;;;2.63;1.55;;;20.00;37.30;;;;;;5001808;28;20101;-56
2023/11/26 02:09:21;;;;;;;1.83;1.20;;;20.00;37.30;;;;;;5024166;28;20040;-52
2023/11/26 02:11:47;;;;;;;2.95;1.60;;;20.00;37.40;;;;;;5037566;28;20318;-54
2023/11/26 02:14:13;;;;;;;2.35;1.38;;;20.00;37.30;;;;;;5044156;28;20034;-58
2023/11/26 02:16:39;;;;;;;3.22;1.65;;;20.00;37.30;;;;;;5029413;28;20020;-58
2023/11/26 02:19:28;;;;;;;2.22;1.15;;;20.00;37.30;;;;;;5019109;28;20029;-56
2023/11/26 02:21:54;;;;;;;2.50;1.35;;;20.00;37.30;;;;;;5020505;28;20094;-58
2023/11/26 02:24:26;;;;;;;4.00;1.60;;;20.00;37.30;;;;;;5026601;28;20433;-56
2023/11/26 02:26:54;;;;;;;2.17;1.45;;;20.00;37.30;;;;;;5022343;28;20029;-57
2023/11/26 02:29:21;;;;;;;3.53;1.50;;;20.00;37.30;;;;;;5038489;28;20045;-56
2023/11/26 02:31:47;;;;;;;2.70;1.27;;;19.90;37.20;;;;;;5022938;28;20025;-54
2023/11/26 02:34:13;;;;;;;3.10;1.98;;;19.90;37.30;;;;;;5038184;28;20456;-51
2023/11/26 02:36:39;;;;;;;3.20;1.45;;;19.90;37.20;;;;;;5038441;28;20029;-52
2023/11/26 02:39:05;;;;;;;3.38;1.77;;;19.90;37.20;;;;;;5035279;28;20047;-55
2023/11/26 02:41:32;;;;;;;2.97;1.50;;;19.90;37.20;;;;;;5017191;28;20057;-55
2023/11/26 02:43:58;;;;;;;3.95;1.55;;;19.90;37.10;;;;;;5015513;28;20039;-57
2023/11/26 02:46:24;;;;;;;3.92;1.50;;;19.90;37.20;;;;;;5016858;28;20415;-50
2023/11/26 02:48:50;;;;;;;3.28;1.48;;;19.90;37.10;;;;;;5017254;28;20025;-58
2023/11/26 02:51:16;;;;;;;3.33;1.27;;;19.90;37.10;;;;;;5034929;28;20029;-56
2023/11/26 02:53:43;;;;;;;2.30;1.30;;;19.90;37.10;;;;;;5034985;28;20087;-59
2023/11/26 02:56:13;;;;;;;3.50;1.42;;;19.90;37.10;;;;;;5035132;28;20021;-58
2023/11/26 02:58:42;;;;;;;3.50;1.67;;;19.80;37.00;;;;;;5034554;28;20025;-56
2023/11/26 03:01:16;;;;;;;2.85;1.60;;;19.80;37.00;;;;;;5016961;28;20578;-54
2023/11/26 03:03:42;;;;;;;4.17;1.97;;;19.80;37.00;;;;;;5017013;28;20411;-57
2023/11/26 03:06:08;;;;;;;2.53;1.45;;;19.80;37.00;;;;;;5034283;28;20030;-56
2023/11/26 03:08:37;;;;;;;2.83;1.58;;;19.80;37.00;;;;;;5034276;28;20025;-56
2023/11/26 03:13:49;;;;;;;2.92;1.48;;;19.80;37.00;;;;;;5033449;28;21652;-53
2023/11/26 03:16:16;;;;;;;4.05;1.60;;;19.80;37.00;;;;;;5018832;28;20452;-56
2023/11/26 03:18:41;;;;;;;2.83;1.50;;;19.80;37.00;;;;;;5016639;28;20092;-54
2023/11/26 03:21:11;;;;;;;2.17;1.20;;;19.80;37.00;;;;;;5017028;28;20038;-53
2023/11/26 03:23:36;;;;;;;4.45;1.67;;;19.80;37.00;;;;;;5016757;28;20025;-57
2023/11/26 03:26:03;;;;;;;2.78;1.35;;;19.80;37.00;;;;;;5034108;28;20021;-55
2023/11/26 03:28:29;;;;;;;1.98;1.38;;;19.80;36.90;;;;;;5033340;28;20025;-53
2023/11/26 03:30:56;;;;;;;2.80;1.50;;;19.80;36.90;;;;;;5034061;28;20025;-57
2023/11/26 03:33:22;;;;;;;2.47;1.30;;;19.80;37.00;;;;;;5034479;28;20022;-58
2023/11/26 03:35:50;;;;;;;3.63;1.50;;;19.80;37.60;;;;;;5034674;28;20036;-57
2023/11/26 03:38:17;;;;;;;2.55;1.40;;;19.80;36.90;;;;;;5011314;28;20380;-54
2023/11/26 03:40:44;;;;;;;2.95;1.48;;;19.80;36.90;;;;;;5044740;28;20082;-56
2023/11/26 03:43:11;;;;;;;1.92;1.20;;;19.80;36.90;;;;;;5048001;28;20040;-55
2023/11/26 03:45:38;;;;;;;3.35;1.45;;;19.80;36.90;;;;;;5054589;28;20024;-55
2023/11/26 03:48:04;;;;;;;2.25;1.48;;;19.70;36.90;;;;;;5054718;28;20078;-53
2023/11/26 03:50:30;;;;;;;2.17;1.35;;;19.80;36.90;;;;;;5047309;28;20038;-55
2023/11/26 03:52:56;;;;;;;2.92;1.73;;;19.70;36.90;;;;;;5054747;28;20048;-56
2023/11/26 03:55:22;;;;;;;2.58;1.42;;;19.70;36.80;;;;;;5054579;28;20112;-54
2023/11/26 03:57:49;;;;;;;2.60;1.45;;;19.70;36.80;;;;;;5046473;28;20044;-58
2023/11/26 04:00:16;;;;;;;2.33;1.30;;;19.70;36.90;;;;;;5054143;28;20459;-54
2023/11/26 04:02:42;;;;;;;2.97;1.55;;;19.70;36.90;;;;;;5047694;28;20021;-57
2023/11/26 04:05:08;;;;;;;3.10;1.70;;;19.70;36.90;;;;;;5045430;28;20029;-53
2023/11/26 04:07:34;;;;;;;2.17;1.30;;;19.70;37.00;;;;;;5031129;28;20037;-52
2023/11/26 04:10:05;;;;;;;2.78;1.60;;;19.70;37.00;;;;;;5048320;28;20051;-56
2023/11/26 04:12:31;;;;;;;2.20;1.50;;;19.70;37.00;;;;;;5041846;28;20052;-53
2023/11/26 04:15:02;;;;;;;3.72;1.35;;;19.70;36.90;;;;;;5048204;28;20035;-53
2023/11/26 04:17:28;;;;;;;2.15;1.30;;;19.70;36.90;;;;;;5039435;28;20021;-52
2023/11/26 04:19:55;;;;;;;3.42;1.58;;;19.70;36.90;;;;;;5053993;28;20055;-56
2023/11/26 04:22:28;;;;;;;2.72;1.30;;;19.70;36.90;;;;;;5047234;28;20041;-50
2023/11/26 04:24:54;;;;;;;1.92;1.20;;;19.70;36.90;;;;;;5052001;28;20971;-54
2023/11/26 04:27:21;;;;;;;2.58;1.17;;;19.70;36.90;;;;;;5054152;28;20438;-54
2023/11/26 04:29:47;;;;;;;2.33;1.33;;;19.70;36.90;;;;;;5053599;28;20044;-57
2023/11/26 04:32:13;;;;;;;3.08;1.30;;;19.70;36.90;;;;;;5051200;28;20448;-57
2023/11/26 04:34:40;;;;;;;2.55;1.33;;;19.70;36.90;;;;;;5054078;28;20086;-53
2023/11/26 04:37:11;;;;;;;2.60;1.48;;;19.60;36.80;;;;;;5054160;28;20440;-59
2023/11/26 04:39:38;;;;;;;1.92;1.35;;;19.60;36.80;;;;;;5033347;28;20045;-55
2023/11/26 04:42:05;;;;;;;2.53;1.38;;;19.60;36.80;;;;;;5016273;28;20042;-58
2023/11/26 04:44:32;;;;;;;2.30;1.25;;;19.60;36.80;;;;;;5033770;28;20022;-56
2023/11/26 04:46:58;;;;;;;2.65;1.08;;;19.60;36.80;;;;;;5034196;28;20025;-56
2023/11/26 04:49:25;;;;;;;3.08;1.50;;;19.60;36.80;;;;;;5033968;28;20021;-54
2023/11/26 04:51:51;;;;;;;2.05;1.30;;;19.60;36.80;;;;;;5034035;28;20018;-54
2023/11/26 04:54:17;;;;;;;1.95;1.05;;;19.60;36.80;;;;;;5033748;28;20068;-57
2023/11/26 04:56:43;;;;;;;2.75;1.50;;;19.60;36.80;;;;;;5033264;28;20057;-51
2023/11/26 04:59:09;;;;;;;2.58;1.30;;;19.60;36.80;;;;;;5016250;28;20495;-58
2023/11/26 05:01:43;;;;;;;2.88;1.42;;;19.60;36.80;;;;;;5033966;28;20041;-57
2023/11/26 05:04:15;;;;;;;3.40;1.55;;;19.60;36.80;;;;;;5034043;28;20033;-56
2023/11/26 05:06:44;;;;;;;2.70;1.30;;;19.60;36.80;;;;;;5033715;28;20087;-53
2023/11/26 05:09:13;;;;;;;1.73;1.00;;;19.60;36.70;;;;;;5033969;28;20036;-54
2023/11/26 05:11:41;;;;;;;2.45;1.20;;;19.50;36.70;;;;;;5033586;28;20056;-56
2023/11/26 05:14:07;;;;;;;2.05;1.10;;;19.50;36.70;;;;;;5016435;28;20109;-56
2023/11/26 05:16:33;;;;;;;1.88;1.10;;;19.60;36.70;;;;;;5033608;28;20033;-53
2023/11/26 05:18:59;;;;;;;1.30;0.80;;;19.50;36.70;;;;;;5015975;28;20033;-55
2023/11/26 05:21:25;;;;;;;2.30;1.20;;;19.50;36.70;;;;;;5033370;28;20533;-51
2023/11/26 05:23:51;;;;;;;2.08;0.98;;;19.50;36.70;;;;;;5034035;28;20345;-53
2023/11/26 05:26:17;;;;;;;2.75;1.05;;;19.50;36.70;;;;;;5033926;28;20025;-58
2023/11/26 05:28:43;;;;;;;1.67;1.10;;;19.50;36.60;;;;;;5016234;28;20441;-58
2023/11/26 05:31:11;;;;;;;2.08;1.10;;;19.50;37.30;;;;;;5033391;28;20025;-51
2023/11/26 05:33:38;;;;;;;2.92;1.63;;;19.50;36.70;;;;;;5016233;28;20125;-57
2023/11/26 05:36:05;;;;;;;3.60;1.10;;;19.50;36.70;;;;;;5033367;28;20124;-54
2023/11/26 05:38:31;;;;;;;1.75;0.98;;;19.50;36.70;;;;;;5033274;28;20128;-55
2023/11/26 05:40:58;;;;;;;1.48;1.00;;;19.50;36.70;;;;;;5033434;28;20041;-52
2023/11/26 05:43:25;;;;;;;2.22;0.90;;;19.50;36.70;;;;;;5033525;28;20057;-54
2023/11/26 05:45:50;;;;;;;2.67;0.80;;;19.50;36.70;;;;;;5033539;28;20029;-53
2023/11/26 05:48:16;;;;;;;2.80;1.30;;;19.50;36.70;;;;;;5033431;28;20075;-52
2023/11/26 05:50:42;;;;;;;2.13;1.02;;;19.50;37.40;;;;;;5034728;28;20479;-54
2023/11/26 05:53:08;;;;;;;2.50;1.02;;;19.50;36.80;;;;;;5018939;28;20041;-56
2023/11/26 05:55:33;;;;;;;2.25;1.02;;;19.50;36.70;;;;;;5037185;28;20048;-54
2023/11/26 05:57:59;;;;;;;1.88;1.10;;;19.40;36.70;;;;;;5036748;28;20036;-54
2023/11/26 06:00:25;;;;;;;2.22;0.90;;;19.40;36.70;;;;;;5036771;28;20025;-52
2023/11/26 06:02:52;;;;;;;2.00;1.00;;;19.40;36.70;;;;;;5019200;28;20029;-54
2023/11/26 06:05:18;;;;;;;1.95;1.10;;;19.40;36.70;;;;;;5019084;28;20360;-54
2023/11/26 06:07:44;;;;;;;1.48;0.82;;;19.40;36.80;;;;;;5018661;28;20163;-54
2023/11/26 06:10:10;;;;;;;2.75;1.13;;;19.40;36.80;;;;;;5019175;28;20116;-58
2023/11/26 06:12:36;;;;;;;2.20;1.05;;;19.40;36.80;;;;;;5035968;28;20022;-54
2023/11/26 06:15:07;;;;;;;2.13;1.20;;;19.40;36.80;;;;;;5035220;28;20326;-54
2023/11/26 06:17:33;;;;;;;3.17;1.50;;;19.40;36.80;;;;;;5035984;28;20447;-55
2023/11/26 06:19:59;;;;;;;1.83;1.00;;;19.40;36.80;;;;;;5034877;28;20029;-55
2023/11/26 06:22:25;;;;;;;1.58;0.80;;;19.40;36.80;;;;;;5035887;28;20048;-49
2023/11/26 06:24:51;;;;;;;2.28;1.27;;;19.40;36.90;;;;;;5035861;28;20037;-53
2023/11/26 06:27:17;;;;;;;1.23;0.60;;;19.40;36.90;;;;;;5035784;28;20401;-50
2023/11/26 06:29:44;;;;;;;2.05;1.00;;;19.40;36.90;;;;;;5036225;28;20060;-51
2023/11/26 06:32:10;;;;;;;1.58;0.88;;;19.40;36.90;;;;;;5036122;28;20329;-54
2023/11/26 06:34:37;;;;;;;2.88;1.00;;;19.40;36.90;;;;;;5036030;28;20051;-55
2023/11/26 06:37:04;;;;;;;2.20;1.00;;;19.40;36.90;;;;;;5035752;28;20523;-56
2023/11/26 06:39:30;;;;;;;2.10;0.93;;;19.40;36.90;;;;;;5035464;28;20053;-47
2023/11/26 06:41:56;;;;;;;1.77;0.70;;;19.40;36.90;;;;;;5035701;28;20372;-52
2023/11/26 06:44:22;;;;;;;1.70;0.70;;;19.40;37.00;;;;;;5035484;28;20049;-54
2023/11/26 06:46:52;;;;;;;2.13;1.15;;;19.40;37.00;;;;;;5035596;28;20065;-53
2023/11/26 06:49:18;;;;;;;3.28;1.15;;;19.40;37.30;;;;;;5035730;28;20036;-55
2023/11/26 06:51:44;;;;;;;1.80;0.88;;;19.30;37.00;;;;;;5035440;28;20037;-50
2023/11/26 06:54:10;;;;;;;2.45;0.95;;;19.30;37.00;;;;;;5035606;28;20025;-52
2023/11/26 06:56:36;;;;;;;1.58;0.82;;;19.30;37.00;;;;;;5035349;28;20028;-54
2023/11/26 06:59:02;;;;;;;1.65;1.00;;;19.30;37.00;;;;;;5035385;28;20048;-48
2023/11/26 07:01:28;;;;;;;1.73;0.73;;;19.30;37.10;;;;;;5034846;28;20041;-54
2023/11/26 07:03:54;;;;;;;1.90;0.93;;;19.30;37.10;;;;;;5017381;28;20436;-56
2023/11/26 07:06:20;;;;;;;1.55;0.70;;;19.40;37.10;;;;;;5035034;28;20028;-54
2023/11/26 07:08:46;;;;;;;2.05;1.00;;;19.30;37.10;;;;;;5035086;28;20056;-57
2023/11/26 07:11:18;;;;;;;1.70;0.90;;;19.30;37.10;;;;;;5035277;28;20126;-55
2023/11/26 07:13:45;;;;;;;1.20;0.75;;;19.30;37.10;;;;;;5034682;28;20029;-55
2023/11/26 07:16:11;;;;;;;1.60;0.70;;;19.30;37.20;;;;;;5017157;28;20025;-57
2023/11/26 07:18:38;;;;;;;1.63;0.75;;;19.30;37.20;;;;;;5035180;28;20048;-56
2023/11/26 07:21:05;;;;;;;1.55;0.90;;;19.30;37.30;;;;;;5034674;28;20445;-53
2023/11/26 07:23:31;;;;;;;3.17;0.88;;;19.30;37.30;;;;;;5034940;28;20025;-54
2023/11/26 07:25:58;;;;;;;1.00;0.70;;;19.30;37.30;;;;;;5035181;28;20068;-52
2023/11/26 07:28:24;;;;;;;2.47;0.80;;;19.30;37.30;;;;;;5034926;28;20030;-59
2023/11/26 07:30:50;;;;;;;2.40;1.00;;;19.30;37.40;;;;;;5017303;28;20406;-53
2023/11/26 07:33:16;;;;;;;0.80;0.50;;;19.30;37.40;;;;;;5034540;28;20029;-55
2023/11/26 07:35:42;;;;;;;1.42;0.70;;;19.30;37.40;;;;;;5034585;28;20021;-50
2023/11/26 07:38:10;;;;;;;2.10;1.00;;;19.30;37.40;;;;;;5034459;28;20130;-56
2023/11/26 07:40:36;;;;;;;1.77;0.70;;;19.30;37.40;;;;;;5033816;28;20052;-54
2023/11/26 07:43:04;;;;;;;2.28;1.00;;;19.30;37.50;;;;;;5034660;28;20033;-57
2023/11/26 07:45:31;;;;;;;2.10;0.88;;;19.30;37.50;;;;;;5034355;28;20414;-52
2023/11/26 07:47:57;;;;;;;1.52;0.63;;;19.30;37.50;;;;;;5016944;28;20041;-59
2023/11/26 07:50:23;;;;;;;1.77;0.80;;;19.30;37.50;;;;;;5034098;28;20437;-54
2023/11/26 07:52:49;;;;;;;3.35;0.90;;;19.30;37.50;;;;;;5016605;28;20036;-55
2023/11/26 07:55:15;;;;;;;1.17;0.75;;;19.30;37.60;;;;;;5034500;28;20071;-56
2023/11/26 07:57:42;;;;;;;1.88;0.80;;;19.30;37.60;;;;;;5016770;28;20418;-55
2023/11/26 08:00:17;;;;;;;1.92;0.60;;;19.20;37.50;;;;;;5034001;28;20365;-54
2023/11/26 08:02:45;;;;;;;1.33;0.60;;;19.30;37.60;;;;;;5033639;28;20048;-56
2023/11/26 08:05:13;;;;;;;0.82;0.50;;;19.20;37.70;;;;;;5033177;28;20033;-57
2023/11/26 08:07:45;;;;;;;2.35;1.00;;;19.20;37.60;;;;;;5034150;28;20040;-57
2023/11/26 08:10:18;;;;;;;1.13;0.70;;;19.20;37.60;;;;;;5017024;28;20416;-57
2023/11/26 08:12:46;;;;;;;1.73;0.63;;;19.30;37.70;;;;;;5033994;28;20100;-60
2023/11/26 08:15:19;;;;;;;2.85;0.65;;;19.20;37.70;;;;;;5035025;28;20353;-52
2023/11/26 08:17:49;;;;;;;0.85;0.52;;;19.20;37.70;;;;;;5035079;28;20477;-56
2023/11/26 08:20:15;;;;;;;1.95;0.70;;;19.20;37.70;;;;;;5017812;28;20029;-55
2023/11/26 08:22:46;;;;;;;1.48;0.65;;;19.20;37.70;;;;;;5034964;28;20040;-56
2023/11/26 08:25:22;;;;;;;0.95;0.47;;;19.20;37.80;;;;;;5017697;28;20033;-57
2023/11/26 08:27:48;;;;;;;2.42;1.00;;;19.20;37.80;;;;;;5035073;28;20029;-53
2023/11/26 08:30:39;;;;;;;1.60;0.70;;;19.20;37.80;;;;;;5035204;28;20338;-52
2023/11/26 08:33:05;;;;;;;0.93;0.52;;;19.20;37.80;;;;;;5034958;28;20451;-48
2023/11/26 08:35:33;;;;;;;1.10;0.55;;;19.20;37.90;;;;;;5017631;28;20397;-55
2023/11/26 08:38:01;;;;;;;2.22;0.80;;;19.20;37.90;;;;;;5036002;28;20050;-55
2023/11/26 08:40:33;;;;;;;1.38;0.60;;;19.20;38.60;;;;;;5033240;28;20436;-54
2023/11/26 08:43:03;;;;;;;2.03;0.80;;;19.20;38.00;;;;;;5015861;28;20037;-52
2023/11/26 08:45:30;;;;;;;1.83;0.70;;;19.20;38.40;;;;;;5030130;28;20367;-52
2023/11/26 08:47:57;;;;;;;1.05;0.50;;;19.20;38.20;;;;;;5032798;28;20036;-54
2023/11/26 08:50:24;;;;;;;0.85;0.50;;;19.20;38.20;;;;;;5033573;28;20022;-50
2023/11/26 08:52:53;;;;;;;1.58;0.70;;;19.20;38.30;;;;;;5025775;28;20156;-54
2023/11/26 08:55:20;;;;;;;1.80;0.90;;;19.20;38.30;;;;;;5033700;28;20040;-53
2023/11/26 08:57:46;;;;;;;1.50;0.68;;;19.20;38.40;;;;;;5033082;28;20033;-56
2023/11/26 09:00:12;;;;;;;1.20;0.55;;;19.20;38.40;;;;;;5033962;28;20037;-57
2023/11/26 09:02:39;;;;;;;1.17;0.60;;;19.30;38.50;;;;;;5016098;28;20112;-55
2023/11/26 09:05:08;;;;;;;1.77;0.70;;;19.30;38.50;;;;;;5033602;28;20036;-55
2023/11/26 09:07:35;;;;;;;1.88;0.57;;;19.30;38.50;;;;;;5023988;28;20025;-53
2023/11/26 09:10:02;;;;;;;1.92;0.88;;;19.30;38.50;;;;;;5033725;28;20456;-57
2023/11/26 09:12:28;;;;;;;2.40;0.80;;;19.40;38.60;;;;;;5034849;28;20030;-55
2023/11/26 09:14:54;;;;;;;1.95;0.80;;;19.40;38.60;;;;;;5016845;28;20094;-56
2023/11/26 09:17:21;;;;;;;1.20;0.60;;;19.40;38.60;;;;;;5033378;28;20454;-58
2023/11/26 09:19:48;;;;;;;2.05;0.75;;;19.50;38.70;;;;;;5032997;28;20037;-57
2023/11/26 09:22:14;;;;;;;0.98;0.55;;;19.50;38.70;;;;;;5033051;28;20036;-56
2023/11/26 09:24:39;;;;;;;2.20;0.82;;;19.50;38.70;;;;;;5033224;28;20049;-55
2023/11/26 09:27:06;;;;;;;2.03;0.70;;;19.60;38.70;;;;;;5037589;28;20477;-51
2023/11/26 09:29:31;;;;;;;1.80;0.70;;;19.70;38.80;;;;;;5019559;28;20044;-53
2023/11/26 09:31:57;;;;;;;1.88;0.60;;;19.70;38.80;;;;;;5036655;28;20424;-51
2023/11/26 09:34:24;;;;;;;1.85;0.70;;;19.70;38.80;;;;;;5037364;28;20462;-64
2023/11/26 09:36:52;;;;;;;0.70;0.57;;;19.80;38.90;;;;;;5038289;28;20044;-51
2023/11/26 09:39:19;;;;;;;1.40;0.40;;;19.80;38.90;;;;;;5037673;28;20041;-56
2023/11/26 09:41:45;;;;;;;0.90;0.40;;;19.80;38.80;;;;;;5020412;28;20128;-53
2023/11/26 09:44:11;;;;;;;2.00;0.77;;;19.90;38.80;;;;;;5037906;28;20433;-54
2023/11/26 09:46:37;;;;;;;0.90;0.50;;;19.90;38.70;;;;;;5036713;28;20122;-57
2023/11/26 09:49:03;;;;;;;3.08;0.77;;;20.00;38.80;;;;;;5037647;28;20112;-54
2023/11/26 09:51:32;;;;;;;1.30;0.52;;;20.00;38.80;;;;;;5036283;28;20044;-54
2023/11/26 09:53:58;;;;;;;2.00;0.80;;;20.00;38.70;;;;;;5037362;28;20037;-55
2023/11/26 09:56:25;;;;;;;1.67;0.60;;;20.10;38.70;;;;;;5037829;28;20040;-53
2023/11/26 09:58:50;;;;;;;1.30;0.63;;;20.10;38.70;;;;;;5020280;28;20104;-51
2023/11/26 10:01:17;;;;;;;1.77;0.40;;;20.10;38.70;;;;;;5037989;28;20052;-50
2023/11/26 10:03:56;;;;;;;1.25;0.50;;;20.10;38.70;;;;;;5037975;28;20030;-49
2023/11/26 10:06:23;;;;;;;2.13;0.60;;;20.20;38.80;;;;;;5038167;28;20104;-54
2023/11/26 10:08:49;;;;;;;1.05;0.63;;;20.20;38.80;;;;;;5037587;28;20499;-48
2023/11/26 10:11:26;;;;;;;1.73;0.50;;;20.20;38.80;;;;;;5020419;28;20037;-57
2023/11/26 10:13:53;;;;;;;1.05;0.50;;;20.30;38.90;;;;;;5037567;28;20107;-57
2023/11/26 10:16:34;;;;;;;1.58;0.50;;;20.30;38.90;;;;;;5037786;28;20037;-60
2023/11/26 10:19:03;;;;;;;1.95;0.70;;;20.30;38.90;;;;;;5017900;28;20029;-54
2023/11/26 10:21:31;;;;;;;4.38;2.15;;;20.30;39.00;;;;;;5035863;28;20128;-53
2023/11/26 10:24:01;;;;;;;5.75;3.72;;;20.30;39.10;;;;;;5034713;28;20108;-51
2023/11/26 10:26:28;;;;;;;7.63;4.22;;;20.40;39.60;;;;;;5035771;28;20321;-55
2023/11/26 10:29:12;;;;;;;8.50;4.35;;;20.30;40.00;;;;;;5018165;28;20060;-51
2023/11/26 10:32:02;;;;;;;7.47;3.70;;;20.30;40.80;;;;;;5036628;28;20033;-55
2023/11/26 10:34:33;;;;;;;6.93;3.40;;;20.40;41.40;;;;;;5028307;28;20056;-56
2023/11/26 10:37:00;;;;;;;7.45;3.65;;;20.40;42.10;;;;;;5037011;28;20321;-53
2023/11/26 10:39:25;;;;;;;7.80;3.25;;;20.40;42.50;;;;;;5035996;28;20072;-54
2023/11/26 10:41:52;;;;;;;8.80;3.95;;;20.40;43.00;;;;;;5035464;28;20448;-56
2023/11/26 10:44:18;;;;;;;10.48;4.35;;;20.40;43.40;;;;;;5035777;28;20036;-54
2023/11/26 10:46:46;;;;;;;7.90;3.72;;;20.50;43.90;;;;;;5035768;28;20038;-59
2023/11/26 10:49:18;;;;;;;4.30;2.00;;;20.50;44.30;;;;;;5036992;28;20045;-55
2023/11/26 10:51:58;;;;;;;4.68;1.08;;;20.50;43.30;;;;;;5036825;28;20025;-58
2023/11/26 10:54:30;;;;;;;2.25;1.20;;;20.40;42.20;;;;;;5036733;28;20836;-59
2023/11/26 10:57:07;;;;;;;3.35;1.00;;;20.20;41.70;;;;;;5036674;28;20075;-60
2023/11/26 10:59:36;;;;;;;1.42;1.00;;;20.00;41.50;;;;;;5018945;28;20341;-57
2023/11/26 11:02:04;;;;;;;2.08;0.90;;;19.80;41.50;;;;;;5035991;28;20048;-55
2023/11/26 11:04:35;;;;;;;2.13;0.77;;;19.70;41.60;;;;;;5036570;28;20034;-58
2023/11/26 11:07:01;;;;;;;3.15;0.93;;;19.60;41.80;;;;;;5036371;28;20035;-52
2023/11/26 11:09:44;;;;;;;3.42;1.00;;;19.60;41.80;;;;;;5018491;28;20033;-52
2023/11/26 11:12:14;;;;;;;1.77;0.90;;;19.70;41.90;;;;;;5036157;28;20029;-48
2023/11/26 11:14:41;;;;;;;2.58;1.05;;;19.80;41.90;;;;;;5034975;28;20021;-59
2023/11/26 11:17:07;;;;;;;2.30;1.33;;;19.80;41.80;;;;;;5035173;28;20040;-56
2023/11/26 11:19:54;;;;;;;4.07;1.73;;;20.00;42.10;;;;;;5034811;28;20100;-56
2023/11/26 11:22:32;;;;;;;6.80;3.40;;;20.00;42.50;;;;;;5033923;28;20117;-56
2023/11/26 11:25:11;;;;;;;7.40;3.30;;;20.10;43.00;;;;;;5035763;28;20029;-59
2023/11/26 11:27:49;;;;;;;6.97;3.20;;;20.20;43.70;;;;;;5034936;28;20033;-58
2023/11/26 11:30:39;;;;;;;6.30;2.83;;;20.20;44.10;;;;;;5034824;28;20048;-57
2023/11/26 11:33:09;;;;;;;6.75;3.13;;;20.30;44.50;;;;;;5032884;28;20064;-54
2023/11/26 11:35:45;;;;;;;6.47;2.50;;;20.30;44.40;;;;;;5031608;28;20057;-60
2023/11/26 11:38:12;;;;;;;4.53;2.20;;;20.30;44.30;;;;;;5034667;28;20115;-57
2023/11/26 11:41:13;;;;;;;5.28;2.25;;;20.40;44.10;;;;;;5031997;28;20037;-58
2023/11/26 11:43:41;;;;;;;3.33;1.65;;;20.40;43.80;;;;;;5021013;28;20056;-57
2023/11/26 11:46:27;;;;;;;6.15;1.80;;;20.40;43.60;;;;;;5033858;28;20049;-59
2023/11/26 11:48:54;;;;;;;4.82;1.60;;;20.50;43.40;;;;;;5031613;28;20338;-58
2023/11/26 11:51:32;;;;;;;4.00;1.90;;;20.50;43.20;;;;;;5016421;28;20128;-55
2023/11/26 11:54:09;;;;;;;2.25;1.35;;;20.50;43.00;;;;;;5034250;28;20045;-55
2023/11/26 11:56:46;;;;;;;2.85;1.17;;;20.50;42.80;;;;;;5034695;28;20033;-57
2023/11/26 11:59:12;;;;;;;2.25;1.30;;;20.50;42.70;;;;;;5017100;28;20028;-59
2023/11/26 12:01:39;;;;;;;3.25;1.35;;;20.60;42.60;;;;;;5033692;28;20033;-57
2023/11/26 12:04:07;;;;;;;3.22;1.25;;;20.60;42.50;;;;;;5034191;28;20124;-56
2023/11/26 12:06:33;;;;;;;2.30;1.08;;;20.60;42.40;;;;;;5030834;28;20021;-50
2023/11/26 12:09:01;;;;;;;1.90;1.10;;;20.60;42.30;;;;;;5033729;28;20095;-49
2023/11/26 12:11:27;;;;;;;3.25;1.15;;;20.60;42.20;;;;;;5034085;28;20021;-53
2023/11/26 12:13:55;;;;;;;2.22;1.08;;;20.60;42.10;;;;;;5033870;28;20026;-54
2023/11/26 12:16:22;;;;;;;3.15;1.20;;;20.60;42.10;;;;;;5034167;28;20025;-58
2023/11/26 12:18:55;;;;;;;3.80;1.23;;;20.60;42.00;;;;;;5016391;28;20083;-55
2023/11/26 12:21:23;;;;;;;3.65;1.27;;;20.60;41.90;;;;;;5033503;28;20072;-56
2023/11/26 12:23:50;;;;;;;1.70;1.00;;;20.60;41.90;;;;;;5033612;28;20065;-53
2023/11/26 12:26:16;;;;;;;2.90;1.27;;;20.60;41.80;;;;;;5034180;28;20017;-55
2023/11/26 12:28:48;;;;;;;3.58;1.48;;;20.60;41.80;;;;;;5033890;28;20036;-51
2023/11/26 12:31:15;;;;;;;1.70;1.00;;;20.60;41.80;;;;;;5015368;28;20079;-55
2023/11/26 12:33:47;;;;;;;3.22;1.25;;;20.60;41.80;;;;;;5033379;28;20025;-58
2023/11/26 12:36:14;;;;;;;4.40;1.17;;;20.60;41.80;;;;;;5028165;28;20368;-56
2023/11/26 12:38:41;;;;;;;2.42;1.40;;;20.60;41.70;;;;;;5032379;28;20041;-59
2023/11/26 12:41:08;;;;;;;3.80;1.20;;;20.60;41.70;;;;;;5015499;28;20041;-58
2023/11/26 12:43:35;;;;;;;3.97;1.70;;;20.60;41.70;;;;;;5033253;28;20456;-60
2023/11/26 12:46:13;;;;;;;2.88;1.20;;;20.60;41.60;;;;;;5030833;28;20064;-52
2023/11/26 12:48:40;;;;;;;2.15;1.10;;;20.60;41.50;;;;;;5032163;28;20468;-57
2023/11/26 12:51:07;;;;;;;3.10;1.50;;;20.60;41.50;;;;;;5033130;28;20567;-57
2023/11/26 12:53:33;;;;;;;3.55;1.30;;;20.60;41.50;;;;;;5015100;28;20041;-60
2023/11/26 12:56:00;;;;;;;4.13;1.40;;;20.60;41.50;;;;;;5032806;28;20038;-56